<?xml version='1.0' encoding='UTF-8'?>
<gpx version="1.1" creator="https://www.komoot.de" xmlns="http://www.topografix.com/GPX/1/1" xmlns:xsi="http://www.w3.org/2001/XMLSchema-instance" xsi:schemaLocation="http://www.topografix.com/GPX/1/1 http://www.topografix.com/GPX/1/1/gpx.xsd">
  <metadata>
    <name>Wanderung nach Blick auf Burg Braunfels</name>
    <author>
      <link href="https://www.komoot.de">
        <text>komoot</text>
        <type>text/html</type>
      </link>
    </author>
  </metadata>
  <trk>
    <name>Wanderung nach Blick auf Burg Braunfels</name>
    <trkseg>
      <trkpt lat="50.514093" lon="8.389921">
        <ele>255.498324</ele>
        <time>2021-08-11T18:50:07.640Z</time>
      </trkpt>
      <trkpt lat="50.514077" lon="8.389866">
        <ele>255.498324</ele>
        <time>2021-08-11T18:50:13.439Z</time>
      </trkpt>
      <trkpt lat="50.514010" lon="8.389641">
        <ele>255.498324</ele>
        <time>2021-08-11T18:50:35.449Z</time>
      </trkpt>
      <trkpt lat="50.513952" lon="8.389565">
        <ele>255.498324</ele>
        <time>2021-08-11T18:50:45.475Z</time>
      </trkpt>
      <trkpt lat="50.513918" lon="8.389523">
        <ele>255.498324</ele>
        <time>2021-08-11T18:50:51.308Z</time>
      </trkpt>
      <trkpt lat="50.513875" lon="8.389471">
        <ele>255.498324</ele>
        <time>2021-08-11T18:50:58.736Z</time>
      </trkpt>
      <trkpt lat="50.513830" lon="8.389417">
        <ele>255.498324</ele>
        <time>2021-08-11T18:51:06.913Z</time>
      </trkpt>
      <trkpt lat="50.513781" lon="8.389357">
        <ele>255.498324</ele>
        <time>2021-08-11T18:51:15.394Z</time>
      </trkpt>
      <trkpt lat="50.513770" lon="8.389343">
        <ele>255.498324</ele>
        <time>2021-08-11T18:51:17.750Z</time>
      </trkpt>
      <trkpt lat="50.513728" lon="8.389214">
        <ele>255.498324</ele>
        <time>2021-08-11T18:51:30.762Z</time>
      </trkpt>
      <trkpt lat="50.513706" lon="8.389144">
        <ele>255.498324</ele>
        <time>2021-08-11T18:51:37.507Z</time>
      </trkpt>
      <trkpt lat="50.513599" lon="8.388811">
        <ele>255.498324</ele>
        <time>2021-08-11T18:52:07.542Z</time>
      </trkpt>
      <trkpt lat="50.513572" lon="8.388725">
        <ele>255.434324</ele>
        <time>2021-08-11T18:52:16.155Z</time>
      </trkpt>
      <trkpt lat="50.513506" lon="8.388511">
        <ele>255.209256</ele>
        <time>2021-08-11T18:52:35.418Z</time>
      </trkpt>
      <trkpt lat="50.513465" lon="8.388379">
        <ele>255.070240</ele>
        <time>2021-08-11T18:52:46.704Z</time>
      </trkpt>
      <trkpt lat="50.513474" lon="8.388040">
        <ele>254.749166</ele>
        <time>2021-08-11T18:53:14.518Z</time>
      </trkpt>
      <trkpt lat="50.513494" lon="8.387919">
        <ele>254.630859</ele>
        <time>2021-08-11T18:53:24.602Z</time>
      </trkpt>
      <trkpt lat="50.513533" lon="8.387781">
        <ele>254.487955</ele>
        <time>2021-08-11T18:53:36.462Z</time>
      </trkpt>
      <trkpt lat="50.513520" lon="8.387752">
        <ele>254.454379</ele>
        <time>2021-08-11T18:53:39.367Z</time>
      </trkpt>
      <trkpt lat="50.513510" lon="8.387730">
        <ele>254.428788</ele>
        <time>2021-08-11T18:53:41.703Z</time>
      </trkpt>
      <trkpt lat="50.513457" lon="8.387619">
        <ele>254.297435</ele>
        <time>2021-08-11T18:53:52.653Z</time>
      </trkpt>
      <trkpt lat="50.513439" lon="8.387380">
        <ele>254.069689</ele>
        <time>2021-08-11T18:54:12.922Z</time>
      </trkpt>
      <trkpt lat="50.513460" lon="8.387281">
        <ele>253.970931</ele>
        <time>2021-08-11T18:54:21.070Z</time>
      </trkpt>
      <trkpt lat="50.513519" lon="8.387109">
        <ele>253.785997</ele>
        <time>2021-08-11T18:54:36.534Z</time>
      </trkpt>
      <trkpt lat="50.513530" lon="8.387043">
        <ele>253.721432</ele>
        <time>2021-08-11T18:54:41.992Z</time>
      </trkpt>
      <trkpt lat="50.513530" lon="8.387043">
        <ele>253.721432</ele>
        <time>2021-08-11T18:54:42.024Z</time>
      </trkpt>
      <trkpt lat="50.513450" lon="8.386982">
        <ele>253.589125</ele>
        <time>2021-08-11T18:54:53.975Z</time>
      </trkpt>
      <trkpt lat="50.513396" lon="8.386987">
        <ele>253.508627</ele>
        <time>2021-08-11T18:55:01.687Z</time>
      </trkpt>
      <trkpt lat="50.513211" lon="8.387438">
        <ele>253.000754</ele>
        <time>2021-08-11T18:55:46.226Z</time>
      </trkpt>
      <trkpt lat="50.513186" lon="8.387606">
        <ele>252.837480</ele>
        <time>2021-08-11T18:55:59.990Z</time>
      </trkpt>
      <trkpt lat="50.513182" lon="8.387635">
        <ele>252.769431</ele>
        <time>2021-08-11T18:56:02.308Z</time>
      </trkpt>
      <trkpt lat="50.513189" lon="8.387817">
        <ele>252.036705</ele>
        <time>2021-08-11T18:56:17.357Z</time>
      </trkpt>
      <trkpt lat="50.513211" lon="8.387989">
        <ele>251.331657</ele>
        <time>2021-08-11T18:56:32.925Z</time>
      </trkpt>
      <trkpt lat="50.513172" lon="8.388744">
        <ele>248.287600</ele>
        <time>2021-08-11T18:57:38.188Z</time>
      </trkpt>
      <trkpt lat="50.513256" lon="8.389412">
        <ele>245.551175</ele>
        <time>2021-08-11T18:58:38.161Z</time>
      </trkpt>
      <trkpt lat="50.513295" lon="8.389508">
        <ele>245.093379</ele>
        <time>2021-08-11T18:58:48.283Z</time>
      </trkpt>
      <trkpt lat="50.513331" lon="8.389595">
        <ele>244.676255</ele>
        <time>2021-08-11T18:58:57.348Z</time>
      </trkpt>
      <trkpt lat="50.513441" lon="8.389864">
        <ele>243.391026</ele>
        <time>2021-08-11T18:59:24.838Z</time>
      </trkpt>
      <trkpt lat="50.513530" lon="8.390019">
        <ele>242.551785</ele>
        <time>2021-08-11T18:59:43.546Z</time>
      </trkpt>
      <trkpt lat="50.513620" lon="8.390022">
        <ele>241.982895</ele>
        <time>2021-08-11T18:59:55.317Z</time>
      </trkpt>
      <trkpt lat="50.513629" lon="8.390049">
        <ele>241.860390</ele>
        <time>2021-08-11T18:59:58.404Z</time>
      </trkpt>
      <trkpt lat="50.513851" lon="8.390736">
        <ele>238.849763</ele>
        <time>2021-08-11T19:01:04.501Z</time>
      </trkpt>
      <trkpt lat="50.513875" lon="8.391034">
        <ele>237.681305</ele>
        <time>2021-08-11T19:01:30.066Z</time>
      </trkpt>
      <trkpt lat="50.513821" lon="8.391078">
        <ele>237.309264</ele>
        <time>2021-08-11T19:01:38.642Z</time>
      </trkpt>
      <trkpt lat="50.513861" lon="8.391209">
        <ele>236.743980</ele>
        <time>2021-08-11T19:01:51.135Z</time>
      </trkpt>
      <trkpt lat="50.513918" lon="8.391770">
        <ele>234.534052</ele>
        <time>2021-08-11T19:02:40.099Z</time>
      </trkpt>
      <trkpt lat="50.513891" lon="8.391870">
        <ele>234.111447</ele>
        <time>2021-08-11T19:02:49.336Z</time>
      </trkpt>
      <trkpt lat="50.513895" lon="8.391991">
        <ele>233.640131</ele>
        <time>2021-08-11T19:02:59.444Z</time>
      </trkpt>
      <trkpt lat="50.513818" lon="8.391909">
        <ele>233.071260</ele>
        <time>2021-08-11T19:03:12.001Z</time>
      </trkpt>
      <trkpt lat="50.513781" lon="8.391918">
        <ele>232.842229</ele>
        <time>2021-08-11T19:03:17.056Z</time>
      </trkpt>
      <trkpt lat="50.513823" lon="8.392040">
        <ele>232.302573</ele>
        <time>2021-08-11T19:03:29.103Z</time>
      </trkpt>
      <trkpt lat="50.513824" lon="8.392042">
        <ele>232.292676</ele>
        <time>2021-08-11T19:03:29.274Z</time>
      </trkpt>
      <trkpt lat="50.513848" lon="8.392287">
        <ele>231.328402</ele>
        <time>2021-08-11T19:03:50.458Z</time>
      </trkpt>
      <trkpt lat="50.513793" lon="8.392449">
        <ele>230.614041</ele>
        <time>2021-08-11T19:04:06.223Z</time>
      </trkpt>
      <trkpt lat="50.513648" lon="8.392701">
        <ele>229.587072</ele>
        <time>2021-08-11T19:04:35.518Z</time>
      </trkpt>
      <trkpt lat="50.513584" lon="8.392826">
        <ele>229.121555</ele>
        <time>2021-08-11T19:04:49.336Z</time>
      </trkpt>
      <trkpt lat="50.513348" lon="8.393328">
        <ele>227.310638</ele>
        <time>2021-08-11T19:05:42.006Z</time>
      </trkpt>
      <trkpt lat="50.513231" lon="8.393542">
        <ele>226.491981</ele>
        <time>2021-08-11T19:06:05.943Z</time>
      </trkpt>
      <trkpt lat="50.513183" lon="8.393629">
        <ele>226.157867</ele>
        <time>2021-08-11T19:06:15.499Z</time>
      </trkpt>
      <trkpt lat="50.513248" lon="8.393769">
        <ele>225.655034</ele>
        <time>2021-08-11T19:06:29.871Z</time>
      </trkpt>
      <trkpt lat="50.513028" lon="8.394090">
        <ele>224.286027</ele>
        <time>2021-08-11T19:07:09.145Z</time>
      </trkpt>
      <trkpt lat="50.512914" lon="8.394218">
        <ele>223.647047</ele>
        <time>2021-08-11T19:07:26.998Z</time>
      </trkpt>
      <trkpt lat="50.512847" lon="8.394282">
        <ele>223.289448</ele>
        <time>2021-08-11T19:07:37.257Z</time>
      </trkpt>
      <trkpt lat="50.512538" lon="8.394477">
        <ele>221.947330</ele>
        <time>2021-08-11T19:08:19.816Z</time>
      </trkpt>
      <trkpt lat="50.512468" lon="8.394524">
        <ele>221.728802</ele>
        <time>2021-08-11T19:08:29.359Z</time>
      </trkpt>
      <trkpt lat="50.512468" lon="8.394524">
        <ele>221.728802</ele>
        <time>2021-08-11T19:08:29.448Z</time>
      </trkpt>
      <trkpt lat="50.512491" lon="8.394643">
        <ele>221.501724</ele>
        <time>2021-08-11T19:08:39.479Z</time>
      </trkpt>
      <trkpt lat="50.512496" lon="8.394722">
        <ele>221.356777</ele>
        <time>2021-08-11T19:08:45.901Z</time>
      </trkpt>
      <trkpt lat="50.512487" lon="8.394952">
        <ele>220.936061</ele>
        <time>2021-08-11T19:09:04.619Z</time>
      </trkpt>
      <trkpt lat="50.512482" lon="8.395043">
        <ele>220.769299</ele>
        <time>2021-08-11T19:09:12.018Z</time>
      </trkpt>
      <trkpt lat="50.512460" lon="8.395576">
        <ele>219.794126</ele>
        <time>2021-08-11T19:09:55.790Z</time>
      </trkpt>
      <trkpt lat="50.512343" lon="8.396759">
        <ele>217.608295</ele>
        <time>2021-08-11T19:11:33.621Z</time>
      </trkpt>
      <trkpt lat="50.512289" lon="8.397032">
        <ele>217.086307</ele>
        <time>2021-08-11T19:11:56.391Z</time>
      </trkpt>
      <trkpt lat="50.512149" lon="8.397634">
        <ele>217.285133</ele>
        <time>2021-08-11T19:12:46.844Z</time>
      </trkpt>
      <trkpt lat="50.512120" lon="8.397773">
        <ele>217.331296</ele>
        <time>2021-08-11T19:12:58.258Z</time>
      </trkpt>
      <trkpt lat="50.512092" lon="8.397866">
        <ele>217.363767</ele>
        <time>2021-08-11T19:13:06.755Z</time>
      </trkpt>
      <trkpt lat="50.512048" lon="8.397929">
        <ele>217.393296</ele>
        <time>2021-08-11T19:13:14.659Z</time>
      </trkpt>
      <trkpt lat="50.511901" lon="8.398058">
        <ele>217.476832</ele>
        <time>2021-08-11T19:13:35.206Z</time>
      </trkpt>
      <trkpt lat="50.511310" lon="8.398347">
        <ele>217.783959</ele>
        <time>2021-08-11T19:14:52.475Z</time>
      </trkpt>
      <trkpt lat="50.511182" lon="8.398502">
        <ele>217.864128</ele>
        <time>2021-08-11T19:15:12.356Z</time>
      </trkpt>
      <trkpt lat="50.511153" lon="8.398587">
        <ele>217.894568</ele>
        <time>2021-08-11T19:15:20.108Z</time>
      </trkpt>
      <trkpt lat="50.511153" lon="8.398587">
        <ele>217.894568</ele>
        <time>2021-08-11T19:15:20.761Z</time>
      </trkpt>
      <trkpt lat="50.510954" lon="8.398824">
        <ele>218.348608</ele>
        <time>2021-08-11T19:15:54.425Z</time>
      </trkpt>
      <trkpt lat="50.510928" lon="8.398990">
        <ele>218.821400</ele>
        <time>2021-08-11T19:16:07.915Z</time>
      </trkpt>
      <trkpt lat="50.510993" lon="8.399116">
        <ele>219.270087</ele>
        <time>2021-08-11T19:16:23.365Z</time>
      </trkpt>
      <trkpt lat="50.511055" lon="8.399130">
        <ele>219.542475</ele>
        <time>2021-08-11T19:16:32.647Z</time>
      </trkpt>
      <trkpt lat="50.511157" lon="8.399141">
        <ele>219.987088</ele>
        <time>2021-08-11T19:16:46.124Z</time>
      </trkpt>
      <trkpt lat="50.511157" lon="8.399141">
        <ele>219.987088</ele>
        <time>2021-08-11T19:16:46.229Z</time>
      </trkpt>
      <trkpt lat="50.511157" lon="8.399141">
        <ele>219.987088</ele>
        <time>2021-08-11T19:16:46.387Z</time>
      </trkpt>
      <trkpt lat="50.511213" lon="8.399446">
        <ele>220.865014</ele>
        <time>2021-08-11T19:17:15.564Z</time>
      </trkpt>
      <trkpt lat="50.511361" lon="8.399701">
        <ele>221.819761</ele>
        <time>2021-08-11T19:17:46.193Z</time>
      </trkpt>
      <trkpt lat="50.511657" lon="8.399895">
        <ele>223.214317</ele>
        <time>2021-08-11T19:18:31.619Z</time>
      </trkpt>
      <trkpt lat="50.511767" lon="8.400071">
        <ele>223.896758</ele>
        <time>2021-08-11T19:18:54.617Z</time>
      </trkpt>
      <trkpt lat="50.511906" lon="8.400330">
        <ele>224.833991</ele>
        <time>2021-08-11T19:19:24.695Z</time>
      </trkpt>
      <trkpt lat="50.511964" lon="8.400717">
        <ele>225.880535</ele>
        <time>2021-08-11T19:20:00.027Z</time>
      </trkpt>
      <trkpt lat="50.511923" lon="8.401309">
        <ele>226.884556</ele>
        <time>2021-08-11T19:20:51.376Z</time>
      </trkpt>
      <trkpt lat="50.511797" lon="8.401747">
        <ele>227.695076</ele>
        <time>2021-08-11T19:21:32.084Z</time>
      </trkpt>
      <trkpt lat="50.511707" lon="8.402406">
        <ele>228.831496</ele>
        <time>2021-08-11T19:22:28.465Z</time>
      </trkpt>
      <trkpt lat="50.511703" lon="8.403849">
        <ele>230.706216</ele>
        <time>2021-08-11T19:24:25.055Z</time>
      </trkpt>
      <trkpt lat="50.511613" lon="8.404406">
        <ele>230.900179</ele>
        <time>2021-08-11T19:25:10.038Z</time>
      </trkpt>
      <trkpt lat="50.511437" lon="8.404799">
        <ele>231.062408</ele>
        <time>2021-08-11T19:25:47.388Z</time>
      </trkpt>
      <trkpt lat="50.510812" lon="8.405571">
        <ele>231.484213</ele>
        <time>2021-08-11T19:27:23.452Z</time>
      </trkpt>
      <trkpt lat="50.510110" lon="8.406377">
        <ele>231.212768</ele>
        <time>2021-08-11T19:29:08.139Z</time>
      </trkpt>
      <trkpt lat="50.509877" lon="8.406608">
        <ele>231.106569</ele>
        <time>2021-08-11T19:29:41.506Z</time>
      </trkpt>
      <trkpt lat="50.509587" lon="8.406736">
        <ele>230.990437</ele>
        <time>2021-08-11T19:30:18.058Z</time>
      </trkpt>
      <trkpt lat="50.509336" lon="8.407042">
        <ele>230.867984</ele>
        <time>2021-08-11T19:30:56.766Z</time>
      </trkpt>
      <trkpt lat="50.509121" lon="8.407674">
        <ele>230.297553</ele>
        <time>2021-08-11T19:31:52.838Z</time>
      </trkpt>
      <trkpt lat="50.508695" lon="8.408461">
        <ele>229.305370</ele>
        <time>2021-08-11T19:33:14.382Z</time>
      </trkpt>
      <trkpt lat="50.508290" lon="8.408879">
        <ele>228.574042</ele>
        <time>2021-08-11T19:34:15.147Z</time>
      </trkpt>
      <trkpt lat="50.508115" lon="8.409221">
        <ele>228.152618</ele>
        <time>2021-08-11T19:34:50.384Z</time>
      </trkpt>
      <trkpt lat="50.508036" lon="8.410580">
        <ele>228.076540</ele>
        <time>2021-08-11T19:36:37.486Z</time>
      </trkpt>
      <trkpt lat="50.507890" lon="8.411012">
        <ele>228.063283</ele>
        <time>2021-08-11T19:37:15.375Z</time>
      </trkpt>
      <trkpt lat="50.507616" lon="8.411122">
        <ele>228.051233</ele>
        <time>2021-08-11T19:37:50.541Z</time>
      </trkpt>
      <trkpt lat="50.507458" lon="8.411061">
        <ele>228.044300</ele>
        <time>2021-08-11T19:38:11.078Z</time>
      </trkpt>
      <trkpt lat="50.507409" lon="8.411042">
        <ele>228.042150</ele>
        <time>2021-08-11T19:38:17.285Z</time>
      </trkpt>
      <trkpt lat="50.507234" lon="8.410531">
        <ele>228.526885</ele>
        <time>2021-08-11T19:39:04.760Z</time>
      </trkpt>
      <trkpt lat="50.507120" lon="8.409791">
        <ele>229.613982</ele>
        <time>2021-08-11T19:40:08.718Z</time>
      </trkpt>
      <trkpt lat="50.506953" lon="8.409665">
        <ele>230.029820</ele>
        <time>2021-08-11T19:40:33.430Z</time>
      </trkpt>
      <trkpt lat="50.506808" lon="8.409766">
        <ele>230.385851</ele>
        <time>2021-08-11T19:40:54.612Z</time>
      </trkpt>
      <trkpt lat="50.506110" lon="8.411436">
        <ele>232.511689</ele>
        <time>2021-08-11T19:43:38.661Z</time>
      </trkpt>
      <trkpt lat="50.505663" lon="8.412189">
        <ele>233.064476</ele>
        <time>2021-08-11T19:44:58.848Z</time>
      </trkpt>
      <trkpt lat="50.505663" lon="8.412188">
        <ele>233.065013</ele>
        <time>2021-08-11T19:44:59.274Z</time>
      </trkpt>
      <trkpt lat="50.505294" lon="8.412025">
        <ele>233.388436</ele>
        <time>2021-08-11T19:45:45.679Z</time>
      </trkpt>
      <trkpt lat="50.504813" lon="8.411557">
        <ele>234.326779</ele>
        <time>2021-08-11T19:46:53.912Z</time>
      </trkpt>
      <trkpt lat="50.504352" lon="8.411266">
        <ele>235.450328</ele>
        <time>2021-08-11T19:47:54.339Z</time>
      </trkpt>
      <trkpt lat="50.503851" lon="8.410756">
        <ele>236.800218</ele>
        <time>2021-08-11T19:49:13.751Z</time>
      </trkpt>
      <trkpt lat="50.503657" lon="8.410259">
        <ele>237.639069</ele>
        <time>2021-08-11T19:50:05.456Z</time>
      </trkpt>
      <trkpt lat="50.503544" lon="8.409437">
        <ele>240.439437</ele>
        <time>2021-08-11T19:51:21.936Z</time>
      </trkpt>
      <trkpt lat="50.503494" lon="8.408947">
        <ele>242.108001</ele>
        <time>2021-08-11T19:52:07.069Z</time>
      </trkpt>
      <trkpt lat="50.503494" lon="8.408947">
        <ele>242.108001</ele>
        <time>2021-08-11T19:52:09.029Z</time>
      </trkpt>
      <trkpt lat="50.503057" lon="8.409291">
        <ele>244.691475</ele>
        <time>2021-08-11T19:53:19.049Z</time>
      </trkpt>
      <trkpt lat="50.502762" lon="8.409573">
        <ele>246.516552</ele>
        <time>2021-08-11T19:54:08.342Z</time>
      </trkpt>
      <trkpt lat="50.502633" lon="8.409924">
        <ele>247.462985</ele>
        <time>2021-08-11T19:54:45.262Z</time>
      </trkpt>
      <trkpt lat="50.502718" lon="8.410443">
        <ele>248.210668</ele>
        <time>2021-08-11T19:55:31.567Z</time>
      </trkpt>
      <trkpt lat="50.502820" lon="8.410850">
        <ele>248.820967</ele>
        <time>2021-08-11T19:56:09.412Z</time>
      </trkpt>
      <trkpt lat="50.502845" lon="8.412287">
        <ele>250.826490</ele>
        <time>2021-08-11T19:58:04.161Z</time>
      </trkpt>
      <trkpt lat="50.502796" lon="8.412703">
        <ele>250.721863</ele>
        <time>2021-08-11T19:58:36.811Z</time>
      </trkpt>
      <trkpt lat="50.502660" lon="8.413157">
        <ele>249.821595</ele>
        <time>2021-08-11T19:59:16.822Z</time>
      </trkpt>
      <trkpt lat="50.502533" lon="8.413319">
        <ele>249.360323</ele>
        <time>2021-08-11T19:59:37.066Z</time>
      </trkpt>
      <trkpt lat="50.502305" lon="8.413359">
        <ele>248.713257</ele>
        <time>2021-08-11T20:00:06.252Z</time>
      </trkpt>
      <trkpt lat="50.502051" lon="8.413154">
        <ele>247.907966</ele>
        <time>2021-08-11T20:00:42.814Z</time>
      </trkpt>
      <trkpt lat="50.501829" lon="8.412551">
        <ele>246.658044</ele>
        <time>2021-08-11T20:01:40.237Z</time>
      </trkpt>
      <trkpt lat="50.501689" lon="8.412495">
        <ele>246.250593</ele>
        <time>2021-08-11T20:01:59.006Z</time>
      </trkpt>
      <trkpt lat="50.501689" lon="8.412495">
        <ele>246.250593</ele>
        <time>2021-08-11T20:01:59.917Z</time>
      </trkpt>
      <trkpt lat="50.501653" lon="8.413256">
        <ele>242.756308</ele>
        <time>2021-08-11T20:03:04.942Z</time>
      </trkpt>
      <trkpt lat="50.501684" lon="8.413823">
        <ele>239.861725</ele>
        <time>2021-08-11T20:03:54.764Z</time>
      </trkpt>
      <trkpt lat="50.501767" lon="8.414354">
        <ele>237.080528</ele>
        <time>2021-08-11T20:04:43.569Z</time>
      </trkpt>
      <trkpt lat="50.501770" lon="8.414871">
        <ele>234.450792</ele>
        <time>2021-08-11T20:05:30.646Z</time>
      </trkpt>
      <trkpt lat="50.501686" lon="8.415785">
        <ele>228.876649</ele>
        <time>2021-08-11T20:06:55.165Z</time>
      </trkpt>
      <trkpt lat="50.501700" lon="8.416185">
        <ele>225.899985</ele>
        <time>2021-08-11T20:07:32.938Z</time>
      </trkpt>
      <trkpt lat="50.501624" lon="8.416869">
        <ele>220.740612</ele>
        <time>2021-08-11T20:08:38.992Z</time>
      </trkpt>
      <trkpt lat="50.501462" lon="8.417534">
        <ele>215.449354</ele>
        <time>2021-08-11T20:09:46.425Z</time>
      </trkpt>
      <trkpt lat="50.501170" lon="8.417925">
        <ele>210.968637</ele>
        <time>2021-08-11T20:10:43.381Z</time>
      </trkpt>
      <trkpt lat="50.501032" lon="8.418158">
        <ele>208.866807</ele>
        <time>2021-08-11T20:11:14.011Z</time>
      </trkpt>
      <trkpt lat="50.500947" lon="8.418435">
        <ele>206.876850</ele>
        <time>2021-08-11T20:11:42.123Z</time>
      </trkpt>
      <trkpt lat="50.500947" lon="8.418435">
        <ele>206.876850</ele>
        <time>2021-08-11T20:11:43.185Z</time>
      </trkpt>
      <trkpt lat="50.500773" lon="8.419058">
        <ele>202.474327</ele>
        <time>2021-08-11T20:12:45.959Z</time>
      </trkpt>
      <trkpt lat="50.500691" lon="8.419263">
        <ele>200.907417</ele>
        <time>2021-08-11T20:13:07.922Z</time>
      </trkpt>
      <trkpt lat="50.500561" lon="8.419480">
        <ele>198.978628</ele>
        <time>2021-08-11T20:13:35.661Z</time>
      </trkpt>
      <trkpt lat="50.500259" lon="8.419986">
        <ele>194.488970</ele>
        <time>2021-08-11T20:14:39.272Z</time>
      </trkpt>
      <trkpt lat="50.500178" lon="8.420353">
        <ele>192.129747</ele>
        <time>2021-08-11T20:15:14.063Z</time>
      </trkpt>
      <trkpt lat="50.500098" lon="8.420568">
        <ele>191.185530</ele>
        <time>2021-08-11T20:15:35.582Z</time>
      </trkpt>
      <trkpt lat="50.499974" lon="8.420655">
        <ele>190.376292</ele>
        <time>2021-08-11T20:15:53.885Z</time>
      </trkpt>
      <trkpt lat="50.499924" lon="8.420691">
        <ele>190.048550</ele>
        <time>2021-08-11T20:16:01.472Z</time>
      </trkpt>
      <trkpt lat="50.500206" lon="8.421871">
        <ele>185.270172</ele>
        <time>2021-08-11T20:17:49.712Z</time>
      </trkpt>
      <trkpt lat="50.500206" lon="8.421871">
        <ele>185.270172</ele>
        <time>2021-08-11T20:17:49.870Z</time>
      </trkpt>
      <trkpt lat="50.499930" lon="8.422063">
        <ele>183.471497</ele>
        <time>2021-08-11T20:18:29.696Z</time>
      </trkpt>
      <trkpt lat="50.499879" lon="8.422461">
        <ele>181.932463</ele>
        <time>2021-08-11T20:19:03.359Z</time>
      </trkpt>
      <trkpt lat="50.499843" lon="8.422821">
        <ele>181.395745</ele>
        <time>2021-08-11T20:19:34.191Z</time>
      </trkpt>
      <trkpt lat="50.499834" lon="8.422964">
        <ele>181.277911</ele>
        <time>2021-08-11T20:19:45.930Z</time>
      </trkpt>
      <trkpt lat="50.499800" lon="8.423164">
        <ele>181.108153</ele>
        <time>2021-08-11T20:20:03.361Z</time>
      </trkpt>
      <trkpt lat="50.499684" lon="8.423623">
        <ele>180.703149</ele>
        <time>2021-08-11T20:20:43.638Z</time>
      </trkpt>
      <trkpt lat="50.499588" lon="8.423777">
        <ele>180.526334</ele>
        <time>2021-08-11T20:21:01.301Z</time>
      </trkpt>
      <trkpt lat="50.499353" lon="8.424133">
        <ele>180.105619</ele>
        <time>2021-08-11T20:21:40.752Z</time>
      </trkpt>
      <trkpt lat="50.499097" lon="8.424280">
        <ele>179.754269</ele>
        <time>2021-08-11T20:22:14.726Z</time>
      </trkpt>
      <trkpt lat="50.499013" lon="8.424364">
        <ele>179.625928</ele>
        <time>2021-08-11T20:22:27.033Z</time>
      </trkpt>
      <trkpt lat="50.498924" lon="8.424566">
        <ele>179.424428</ele>
        <time>2021-08-11T20:22:46.655Z</time>
      </trkpt>
      <trkpt lat="50.498484" lon="8.425200">
        <ele>182.644615</ele>
        <time>2021-08-11T20:24:05.580Z</time>
      </trkpt>
      <trkpt lat="50.498423" lon="8.425323">
        <ele>183.295519</ele>
        <time>2021-08-11T20:24:18.788Z</time>
      </trkpt>
      <trkpt lat="50.498423" lon="8.425323">
        <ele>183.295519</ele>
        <time>2021-08-11T20:24:18.907Z</time>
      </trkpt>
      <trkpt lat="50.498385" lon="8.425133">
        <ele>184.126733</ele>
        <time>2021-08-11T20:24:39.115Z</time>
      </trkpt>
      <trkpt lat="50.498169" lon="8.424134">
        <ele>188.530229</ele>
        <time>2021-08-11T20:26:21.309Z</time>
      </trkpt>
      <trkpt lat="50.498061" lon="8.423146">
        <ele>193.333713</ele>
        <time>2021-08-11T20:28:02.572Z</time>
      </trkpt>
      <trkpt lat="50.497927" lon="8.422800">
        <ele>195.677823</ele>
        <time>2021-08-11T20:28:48.149Z</time>
      </trkpt>
      <trkpt lat="50.497834" lon="8.422264">
        <ele>198.892836</ele>
        <time>2021-08-11T20:29:44.874Z</time>
      </trkpt>
      <trkpt lat="50.497568" lon="8.421266">
        <ele>205.154511</ele>
        <time>2021-08-11T20:31:32.869Z</time>
      </trkpt>
      <trkpt lat="50.497500" lon="8.421112">
        <ele>206.239338</ele>
        <time>2021-08-11T20:31:51.195Z</time>
      </trkpt>
      <trkpt lat="50.497357" lon="8.420809">
        <ele>207.924557</ele>
        <time>2021-08-11T20:32:28.121Z</time>
      </trkpt>
      <trkpt lat="50.497248" lon="8.420414">
        <ele>209.108787</ele>
        <time>2021-08-11T20:33:07.867Z</time>
      </trkpt>
      <trkpt lat="50.496484" lon="8.418768">
        <ele>214.713048</ele>
        <time>2021-08-11T20:36:03.711Z</time>
      </trkpt>
      <trkpt lat="50.495861" lon="8.417427">
        <ele>217.492971</ele>
        <time>2021-08-11T20:38:18.449Z</time>
      </trkpt>
      <trkpt lat="50.495531" lon="8.417110">
        <ele>218.423504</ele>
        <time>2021-08-11T20:39:08.291Z</time>
      </trkpt>
      <trkpt lat="50.495316" lon="8.417032">
        <ele>218.954417</ele>
        <time>2021-08-11T20:39:37.005Z</time>
      </trkpt>
      <trkpt lat="50.494321" lon="8.417107">
        <ele>222.401755</ele>
        <time>2021-08-11T20:41:51.998Z</time>
      </trkpt>
      <trkpt lat="50.494138" lon="8.417005">
        <ele>223.145707</ele>
        <time>2021-08-11T20:42:19.148Z</time>
      </trkpt>
      <trkpt lat="50.493595" lon="8.416240">
        <ele>225.939578</ele>
        <time>2021-08-11T20:44:00.047Z</time>
      </trkpt>
      <trkpt lat="50.493329" lon="8.415953">
        <ele>226.791059</ele>
        <time>2021-08-11T20:44:43.933Z</time>
      </trkpt>
      <trkpt lat="50.493309" lon="8.415495">
        <ele>227.300379</ele>
        <time>2021-08-11T20:45:23.178Z</time>
      </trkpt>
      <trkpt lat="50.493183" lon="8.415040">
        <ele>227.850927</ele>
        <time>2021-08-11T20:46:03.466Z</time>
      </trkpt>
      <trkpt lat="50.492749" lon="8.414261">
        <ele>228.999752</ele>
        <time>2021-08-11T20:47:24.233Z</time>
      </trkpt>
      <trkpt lat="50.492593" lon="8.413761">
        <ele>229.621724</ele>
        <time>2021-08-11T20:48:08.169Z</time>
      </trkpt>
      <trkpt lat="50.492566" lon="8.413574">
        <ele>229.912894</ele>
        <time>2021-08-11T20:48:23.692Z</time>
      </trkpt>
      <trkpt lat="50.492609" lon="8.413361">
        <ele>230.252216</ele>
        <time>2021-08-11T20:48:41.105Z</time>
      </trkpt>
      <trkpt lat="50.492957" lon="8.413046">
        <ele>231.210701</ele>
        <time>2021-08-11T20:49:30.954Z</time>
      </trkpt>
      <trkpt lat="50.492957" lon="8.413046">
        <ele>231.210701</ele>
        <time>2021-08-11T20:49:31.210Z</time>
      </trkpt>
      <trkpt lat="50.492957" lon="8.413046">
        <ele>231.210701</ele>
        <time>2021-08-11T20:49:31.588Z</time>
      </trkpt>
      <trkpt lat="50.492805" lon="8.412805">
        <ele>231.726002</ele>
        <time>2021-08-11T20:49:59.978Z</time>
      </trkpt>
      <trkpt lat="50.492556" lon="8.412478">
        <ele>232.500440</ele>
        <time>2021-08-11T20:50:42.175Z</time>
      </trkpt>
      <trkpt lat="50.492308" lon="8.412213">
        <ele>233.216190</ele>
        <time>2021-08-11T20:51:21.939Z</time>
      </trkpt>
      <trkpt lat="50.492127" lon="8.411681">
        <ele>234.250353</ele>
        <time>2021-08-11T20:52:14.259Z</time>
      </trkpt>
      <trkpt lat="50.491886" lon="8.410892">
        <ele>236.253394</ele>
        <time>2021-08-11T20:53:34.562Z</time>
      </trkpt>
      <trkpt lat="50.491682" lon="8.410442">
        <ele>237.517983</ele>
        <time>2021-08-11T20:54:24.133Z</time>
      </trkpt>
      <trkpt lat="50.491039" lon="8.409208">
        <ele>240.861327</ele>
        <time>2021-08-11T20:56:35.517Z</time>
      </trkpt>
      <trkpt lat="50.490842" lon="8.408955">
        <ele>241.424505</ele>
        <time>2021-08-11T20:57:08.295Z</time>
      </trkpt>
      <trkpt lat="50.490817" lon="8.408865">
        <ele>241.562818</ele>
        <time>2021-08-11T20:57:16.496Z</time>
      </trkpt>
      <trkpt lat="50.490814" lon="8.408729">
        <ele>241.754479</ele>
        <time>2021-08-11T20:57:27.930Z</time>
      </trkpt>
      <trkpt lat="50.490868" lon="8.408135">
        <ele>242.599578</ele>
        <time>2021-08-11T20:58:16.098Z</time>
      </trkpt>
      <trkpt lat="50.490972" lon="8.407943">
        <ele>242.954731</ele>
        <time>2021-08-11T20:58:37.873Z</time>
      </trkpt>
      <trkpt lat="50.491100" lon="8.407818">
        <ele>243.288333</ele>
        <time>2021-08-11T20:58:56.330Z</time>
      </trkpt>
      <trkpt lat="50.491349" lon="8.407754">
        <ele>243.846889</ele>
        <time>2021-08-11T20:59:31.024Z</time>
      </trkpt>
      <trkpt lat="50.491743" lon="8.407642">
        <ele>245.390779</ele>
        <time>2021-08-11T21:00:25.799Z</time>
      </trkpt>
      <trkpt lat="50.492214" lon="8.407800">
        <ele>248.293884</ele>
        <time>2021-08-11T21:01:32.325Z</time>
      </trkpt>
      <trkpt lat="50.492558" lon="8.407708">
        <ele>250.397302</ele>
        <time>2021-08-11T21:02:23.101Z</time>
      </trkpt>
      <trkpt lat="50.492895" lon="8.407616">
        <ele>252.459135</ele>
        <time>2021-08-11T21:03:14.730Z</time>
      </trkpt>
      <trkpt lat="50.492895" lon="8.407616">
        <ele>252.459135</ele>
        <time>2021-08-11T21:03:16.054Z</time>
      </trkpt>
      <trkpt lat="50.493096" lon="8.407448">
        <ele>253.831389</ele>
        <time>2021-08-11T21:03:50.092Z</time>
      </trkpt>
      <trkpt lat="50.493254" lon="8.407152">
        <ele>255.319920</ele>
        <time>2021-08-11T21:04:27.627Z</time>
      </trkpt>
      <trkpt lat="50.493396" lon="8.405737">
        <ele>261.125761</ele>
        <time>2021-08-11T21:06:45.460Z</time>
      </trkpt>
      <trkpt lat="50.493340" lon="8.405339">
        <ele>262.777816</ele>
        <time>2021-08-11T21:07:23.812Z</time>
      </trkpt>
      <trkpt lat="50.493377" lon="8.404621">
        <ele>265.697364</ele>
        <time>2021-08-11T21:08:28.376Z</time>
      </trkpt>
      <trkpt lat="50.493350" lon="8.402365">
        <ele>271.501097</ele>
        <time>2021-08-11T21:11:44.549Z</time>
      </trkpt>
      <trkpt lat="50.493550" lon="8.401581">
        <ele>273.546936</ele>
        <time>2021-08-11T21:12:56.100Z</time>
      </trkpt>
      <trkpt lat="50.493469" lon="8.401341">
        <ele>274.335379</ele>
        <time>2021-08-11T21:13:19.263Z</time>
      </trkpt>
      <trkpt lat="50.493192" lon="8.401038">
        <ele>275.874847</ele>
        <time>2021-08-11T21:14:04.842Z</time>
      </trkpt>
      <trkpt lat="50.492937" lon="8.400352">
        <ele>278.180626</ele>
        <time>2021-08-11T21:15:13.699Z</time>
      </trkpt>
      <trkpt lat="50.492931" lon="8.399895">
        <ele>279.507170</ele>
        <time>2021-08-11T21:15:54.021Z</time>
      </trkpt>
      <trkpt lat="50.492573" lon="8.398754">
        <ele>284.385700</ele>
        <time>2021-08-11T21:17:52.559Z</time>
      </trkpt>
      <trkpt lat="50.492490" lon="8.398216">
        <ele>287.215915</ele>
        <time>2021-08-11T21:18:47.316Z</time>
      </trkpt>
      <trkpt lat="50.492372" lon="8.397930">
        <ele>288.958652</ele>
        <time>2021-08-11T21:19:21.079Z</time>
      </trkpt>
      <trkpt lat="50.492362" lon="8.397635">
        <ele>290.468968</ele>
        <time>2021-08-11T21:19:50.882Z</time>
      </trkpt>
      <trkpt lat="50.492291" lon="8.397407">
        <ele>291.766763</ele>
        <time>2021-08-11T21:20:15.707Z</time>
      </trkpt>
      <trkpt lat="50.492072" lon="8.396784">
        <ele>295.405724</ele>
        <time>2021-08-11T21:21:27.194Z</time>
      </trkpt>
      <trkpt lat="50.492011" lon="8.396558">
        <ele>296.454038</ele>
        <time>2021-08-11T21:21:52.149Z</time>
      </trkpt>
      <trkpt lat="50.491631" lon="8.395216">
        <ele>301.215353</ele>
        <time>2021-08-11T21:24:10.414Z</time>
      </trkpt>
      <trkpt lat="50.491484" lon="8.394610">
        <ele>303.317570</ele>
        <time>2021-08-11T21:25:08.056Z</time>
      </trkpt>
      <trkpt lat="50.491531" lon="8.394596">
        <ele>303.561296</ele>
        <time>2021-08-11T21:25:14.228Z</time>
      </trkpt>
      <trkpt lat="50.491684" lon="8.394551">
        <ele>304.354355</ele>
        <time>2021-08-11T21:25:33.869Z</time>
      </trkpt>
      <trkpt lat="50.491974" lon="8.394645">
        <ele>305.113327</ele>
        <time>2021-08-11T21:26:09.967Z</time>
      </trkpt>
      <trkpt lat="50.492300" lon="8.394480">
        <ele>304.689466</ele>
        <time>2021-08-11T21:26:51.195Z</time>
      </trkpt>
      <trkpt lat="50.492616" lon="8.394151">
        <ele>304.220374</ele>
        <time>2021-08-11T21:27:37.935Z</time>
      </trkpt>
      <trkpt lat="50.493380" lon="8.394940">
        <ele>303.089032</ele>
        <time>2021-08-11T21:29:33.764Z</time>
      </trkpt>
      <trkpt lat="50.493409" lon="8.395027">
        <ele>303.020094</ele>
        <time>2021-08-11T21:29:41.475Z</time>
      </trkpt>
      <trkpt lat="50.493380" lon="8.394940">
        <ele>302.972112</ele>
        <time>2021-08-11T21:29:49.500Z</time>
      </trkpt>
      <trkpt lat="50.493312" lon="8.394477">
        <ele>302.739976</ele>
        <time>2021-08-11T21:30:27.433Z</time>
      </trkpt>
      <trkpt lat="50.493355" lon="8.394416">
        <ele>302.695497</ele>
        <time>2021-08-11T21:30:34.848Z</time>
      </trkpt>
      <trkpt lat="50.493449" lon="8.394281">
        <ele>302.597722</ele>
        <time>2021-08-11T21:30:50.664Z</time>
      </trkpt>
      <trkpt lat="50.493753" lon="8.393953">
        <ele>302.314575</ele>
        <time>2021-08-11T21:31:35.931Z</time>
      </trkpt>
      <trkpt lat="50.494617" lon="8.393926">
        <ele>301.656589</ele>
        <time>2021-08-11T21:33:19.940Z</time>
      </trkpt>
      <trkpt lat="50.495503" lon="8.394050">
        <ele>303.308891</ele>
        <time>2021-08-11T21:35:12.628Z</time>
      </trkpt>
      <trkpt lat="50.495806" lon="8.393963">
        <ele>303.881041</ele>
        <time>2021-08-11T21:35:52.889Z</time>
      </trkpt>
      <trkpt lat="50.496842" lon="8.392886">
        <ele>306.347297</ele>
        <time>2021-08-11T21:38:35.986Z</time>
      </trkpt>
      <trkpt lat="50.497100" lon="8.392502">
        <ele>307.095169</ele>
        <time>2021-08-11T21:39:22.231Z</time>
      </trkpt>
      <trkpt lat="50.497617" lon="8.390394">
        <ele>309.611098</ele>
        <time>2021-08-11T21:42:25.183Z</time>
      </trkpt>
      <trkpt lat="50.497961" lon="8.389996">
        <ele>310.168664</ele>
        <time>2021-08-11T21:43:19.444Z</time>
      </trkpt>
      <trkpt lat="50.498236" lon="8.389854">
        <ele>310.546521</ele>
        <time>2021-08-11T21:43:55.999Z</time>
      </trkpt>
      <trkpt lat="50.498629" lon="8.389836">
        <ele>311.059765</ele>
        <time>2021-08-11T21:44:44.800Z</time>
      </trkpt>
      <trkpt lat="50.498804" lon="8.390069">
        <ele>310.948968</ele>
        <time>2021-08-11T21:45:12.821Z</time>
      </trkpt>
      <trkpt lat="50.499101" lon="8.390401">
        <ele>310.581515</ele>
        <time>2021-08-11T21:45:56.815Z</time>
      </trkpt>
      <trkpt lat="50.499101" lon="8.390401">
        <ele>310.581515</ele>
        <time>2021-08-11T21:45:56.977Z</time>
      </trkpt>
      <trkpt lat="50.499277" lon="8.390798">
        <ele>310.271150</ele>
        <time>2021-08-11T21:46:34.265Z</time>
      </trkpt>
      <trkpt lat="50.499643" lon="8.393331">
        <ele>307.094863</ele>
        <time>2021-08-11T21:50:02.199Z</time>
      </trkpt>
      <trkpt lat="50.500035" lon="8.395107">
        <ele>303.228762</ele>
        <time>2021-08-11T21:52:37.401Z</time>
      </trkpt>
      <trkpt lat="50.500163" lon="8.395448">
        <ele>302.202921</ele>
        <time>2021-08-11T21:53:09.930Z</time>
      </trkpt>
      <trkpt lat="50.500548" lon="8.396158">
        <ele>299.785725</ele>
        <time>2021-08-11T21:54:26.550Z</time>
      </trkpt>
      <trkpt lat="50.500995" lon="8.397295">
        <ele>296.322731</ele>
        <time>2021-08-11T21:56:17.152Z</time>
      </trkpt>
      <trkpt lat="50.501164" lon="8.397871">
        <ele>293.354754</ele>
        <time>2021-08-11T21:57:11.295Z</time>
      </trkpt>
      <trkpt lat="50.501164" lon="8.397871">
        <ele>293.354754</ele>
        <time>2021-08-11T21:57:12.430Z</time>
      </trkpt>
      <trkpt lat="50.501164" lon="8.397871">
        <ele>293.354754</ele>
        <time>2021-08-11T21:57:13.225Z</time>
      </trkpt>
      <trkpt lat="50.501369" lon="8.398003">
        <ele>291.719902</ele>
        <time>2021-08-11T21:57:43.774Z</time>
      </trkpt>
      <trkpt lat="50.501589" lon="8.398100">
        <ele>290.033683</ele>
        <time>2021-08-11T21:58:14.676Z</time>
      </trkpt>
      <trkpt lat="50.501877" lon="8.398280">
        <ele>287.746481</ele>
        <time>2021-08-11T21:58:57.932Z</time>
      </trkpt>
      <trkpt lat="50.502207" lon="8.398432">
        <ele>285.208745</ele>
        <time>2021-08-11T21:59:46.526Z</time>
      </trkpt>
      <trkpt lat="50.502286" lon="8.398444">
        <ele>284.623017</ele>
        <time>2021-08-11T21:59:57.687Z</time>
      </trkpt>
      <trkpt lat="50.502416" lon="8.398418">
        <ele>283.655897</ele>
        <time>2021-08-11T22:00:16.916Z</time>
      </trkpt>
      <trkpt lat="50.502699" lon="8.398358">
        <ele>281.413916</ele>
        <time>2021-08-11T22:00:57.575Z</time>
      </trkpt>
      <trkpt lat="50.503914" lon="8.397621">
        <ele>270.934356</ele>
        <time>2021-08-11T22:04:00.547Z</time>
      </trkpt>
      <trkpt lat="50.503996" lon="8.397525">
        <ele>270.111663</ele>
        <time>2021-08-11T22:04:14.529Z</time>
      </trkpt>
      <trkpt lat="50.504153" lon="8.397338">
        <ele>268.542034</ele>
        <time>2021-08-11T22:04:41.060Z</time>
      </trkpt>
      <trkpt lat="50.504416" lon="8.397171">
        <ele>267.215781</ele>
        <time>2021-08-11T22:05:18.800Z</time>
      </trkpt>
      <trkpt lat="50.505145" lon="8.396863">
        <ele>263.686157</ele>
        <time>2021-08-11T22:06:57.950Z</time>
      </trkpt>
      <trkpt lat="50.505745" lon="8.396633">
        <ele>260.798464</ele>
        <time>2021-08-11T22:08:18.068Z</time>
      </trkpt>
      <trkpt lat="50.506185" lon="8.396496">
        <ele>258.967864</ele>
        <time>2021-08-11T22:09:16.220Z</time>
      </trkpt>
      <trkpt lat="50.506721" lon="8.396363">
        <ele>256.896686</ele>
        <time>2021-08-11T22:10:26.924Z</time>
      </trkpt>
      <trkpt lat="50.507301" lon="8.396209">
        <ele>254.651542</ele>
        <time>2021-08-11T22:11:42.738Z</time>
      </trkpt>
      <trkpt lat="50.507559" lon="8.396149">
        <ele>253.656069</ele>
        <time>2021-08-11T22:12:16.130Z</time>
      </trkpt>
      <trkpt lat="50.507959" lon="8.395990">
        <ele>251.823394</ele>
        <time>2021-08-11T22:13:09.433Z</time>
      </trkpt>
      <trkpt lat="50.508273" lon="8.395802">
        <ele>250.266845</ele>
        <time>2021-08-11T22:13:53.236Z</time>
      </trkpt>
      <trkpt lat="50.508840" lon="8.395209">
        <ele>247.112148</ele>
        <time>2021-08-11T22:15:22.892Z</time>
      </trkpt>
      <trkpt lat="50.508949" lon="8.395148">
        <ele>246.576157</ele>
        <time>2021-08-11T22:15:37.803Z</time>
      </trkpt>
      <trkpt lat="50.509025" lon="8.395131">
        <ele>246.220529</ele>
        <time>2021-08-11T22:15:49.021Z</time>
      </trkpt>
      <trkpt lat="50.509092" lon="8.395143">
        <ele>245.908132</ele>
        <time>2021-08-11T22:15:58.193Z</time>
      </trkpt>
      <trkpt lat="50.509095" lon="8.395110">
        <ele>245.809919</ele>
        <time>2021-08-11T22:16:01.179Z</time>
      </trkpt>
      <trkpt lat="50.509092" lon="8.395143">
        <ele>245.711707</ele>
        <time>2021-08-11T22:16:04.124Z</time>
      </trkpt>
      <trkpt lat="50.509151" lon="8.395182">
        <ele>245.415210</ele>
        <time>2021-08-11T22:16:12.205Z</time>
      </trkpt>
      <trkpt lat="50.509237" lon="8.395308">
        <ele>244.831804</ele>
        <time>2021-08-11T22:16:27.419Z</time>
      </trkpt>
      <trkpt lat="50.509291" lon="8.395415">
        <ele>244.244662</ele>
        <time>2021-08-11T22:16:40.192Z</time>
      </trkpt>
      <trkpt lat="50.509712" lon="8.396138">
        <ele>240.031065</ele>
        <time>2021-08-11T22:18:03.176Z</time>
      </trkpt>
      <trkpt lat="50.509760" lon="8.396154">
        <ele>239.699431</ele>
        <time>2021-08-11T22:18:10.774Z</time>
      </trkpt>
      <trkpt lat="50.509760" lon="8.396154">
        <ele>239.699431</ele>
        <time>2021-08-11T22:18:11.153Z</time>
      </trkpt>
      <trkpt lat="50.509760" lon="8.396154">
        <ele>239.699431</ele>
        <time>2021-08-11T22:18:11.683Z</time>
      </trkpt>
      <trkpt lat="50.509839" lon="8.396125">
        <ele>239.151124</ele>
        <time>2021-08-11T22:18:23.242Z</time>
      </trkpt>
      <trkpt lat="50.510181" lon="8.395783">
        <ele>236.411764</ele>
        <time>2021-08-11T22:19:19.408Z</time>
      </trkpt>
      <trkpt lat="50.510540" lon="8.395246">
        <ele>233.062867</ele>
        <time>2021-08-11T22:20:27.203Z</time>
      </trkpt>
      <trkpt lat="50.510787" lon="8.394854">
        <ele>231.455165</ele>
        <time>2021-08-11T22:21:15.149Z</time>
      </trkpt>
      <trkpt lat="50.510887" lon="8.394718">
        <ele>230.885580</ele>
        <time>2021-08-11T22:21:33.688Z</time>
      </trkpt>
      <trkpt lat="50.511030" lon="8.394593">
        <ele>230.180732</ele>
        <time>2021-08-11T22:21:55.577Z</time>
      </trkpt>
      <trkpt lat="50.511138" lon="8.394559">
        <ele>229.706222</ele>
        <time>2021-08-11T22:22:10.270Z</time>
      </trkpt>
      <trkpt lat="50.511623" lon="8.394461">
        <ele>227.599601</ele>
        <time>2021-08-11T22:23:14.046Z</time>
      </trkpt>
      <trkpt lat="50.512000" lon="8.394416">
        <ele>225.970765</ele>
        <time>2021-08-11T22:24:02.670Z</time>
      </trkpt>
      <trkpt lat="50.512311" lon="8.394390">
        <ele>225.334069</ele>
        <time>2021-08-11T22:24:40.977Z</time>
      </trkpt>
      <trkpt lat="50.512420" lon="8.394381">
        <ele>225.651857</ele>
        <time>2021-08-11T22:24:54.128Z</time>
      </trkpt>
      <trkpt lat="50.512468" lon="8.394524">
        <ele>225.951233</ele>
        <time>2021-08-11T22:25:06.706Z</time>
      </trkpt>
      <trkpt lat="50.512538" lon="8.394477">
        <ele>226.172836</ele>
        <time>2021-08-11T22:25:15.984Z</time>
      </trkpt>
      <trkpt lat="50.512847" lon="8.394282">
        <ele>227.142220</ele>
        <time>2021-08-11T22:25:58.724Z</time>
      </trkpt>
      <trkpt lat="50.512914" lon="8.394218">
        <ele>227.370456</ele>
        <time>2021-08-11T22:26:08.930Z</time>
      </trkpt>
      <trkpt lat="50.513028" lon="8.394090">
        <ele>227.778284</ele>
        <time>2021-08-11T22:26:27.232Z</time>
      </trkpt>
      <trkpt lat="50.513248" lon="8.393769">
        <ele>228.652051</ele>
        <time>2021-08-11T22:27:06.759Z</time>
      </trkpt>
      <trkpt lat="50.513318" lon="8.393650">
        <ele>228.952177</ele>
        <time>2021-08-11T22:27:21.811Z</time>
      </trkpt>
      <trkpt lat="50.513773" lon="8.392664">
        <ele>230.286459</ele>
        <time>2021-08-11T22:29:16.872Z</time>
      </trkpt>
      <trkpt lat="50.514316" lon="8.392019">
        <ele>230.286459</ele>
        <time>2021-08-11T22:31:00.915Z</time>
      </trkpt>
      <trkpt lat="50.514417" lon="8.391819">
        <ele>230.286459</ele>
        <time>2021-08-11T22:31:25.609Z</time>
      </trkpt>
      <trkpt lat="50.514486" lon="8.391698">
        <ele>230.286459</ele>
        <time>2021-08-11T22:31:40.659Z</time>
      </trkpt>
      <trkpt lat="50.514486" lon="8.391698">
        <ele>230.286459</ele>
        <time>2021-08-11T22:31:40.932Z</time>
      </trkpt>
      <trkpt lat="50.514502" lon="8.391600">
        <ele>230.286459</ele>
        <time>2021-08-11T22:31:50.055Z</time>
      </trkpt>
      <trkpt lat="50.514492" lon="8.391495">
        <ele>230.286459</ele>
        <time>2021-08-11T22:31:59.869Z</time>
      </trkpt>
      <trkpt lat="50.514485" lon="8.391464">
        <ele>230.286459</ele>
        <time>2021-08-11T22:32:02.986Z</time>
      </trkpt>
      <trkpt lat="50.514470" lon="8.391378">
        <ele>230.286459</ele>
        <time>2021-08-11T22:32:11.459Z</time>
      </trkpt>
      <trkpt lat="50.514410" lon="8.391126">
        <ele>230.286459</ele>
        <time>2021-08-11T22:32:36.518Z</time>
      </trkpt>
      <trkpt lat="50.514379" lon="8.391145">
        <ele>230.286459</ele>
        <time>2021-08-11T22:32:41.111Z</time>
      </trkpt>
      <trkpt lat="50.514319" lon="8.390875">
        <ele>230.286459</ele>
        <time>2021-08-11T22:33:07.375Z</time>
      </trkpt>
      <trkpt lat="50.514295" lon="8.390766">
        <ele>230.286459</ele>
        <time>2021-08-11T22:33:17.881Z</time>
      </trkpt>
      <trkpt lat="50.514284" lon="8.390727">
        <ele>230.286459</ele>
        <time>2021-08-11T22:33:21.717Z</time>
      </trkpt>
      <trkpt lat="50.514307" lon="8.390668">
        <ele>230.286459</ele>
        <time>2021-08-11T22:33:28.277Z</time>
      </trkpt>
      <trkpt lat="50.514243" lon="8.390439">
        <ele>230.286459</ele>
        <time>2021-08-11T22:33:50.575Z</time>
      </trkpt>
      <trkpt lat="50.514150" lon="8.390116">
        <ele>230.286459</ele>
        <time>2021-08-11T22:34:22.508Z</time>
      </trkpt>
    </trkseg>
  </trk>
</gpx>